Gold Hill, Illinois
Current Conditions -  °F | °C
As of 3:15 AM on Monday 22 Dec 2014 (Local Time) from KHSB Reporting Station
Overcast Overcast  
Wind Chill: 32°   Ceiling: 8000
Heat Index: 38°   Visibility: 10mi
Dew Point: 32°   Wind: 7mph
Humidity: 80%   Direction: 110°ESE
Pressure: 29.94"   Gusts: NA
Location:  37.7051°N, 88.1623°W
Report Text: KHSB 220915Z AUTO 11006KT 10SM SCT031 OVC080 03/00 A2994 RMK AO2 T00320000
Loading
Personal Weather Stations






























Interactive Weather Map New forecast layout! Learn more

10-Day Weather Forecast

Advertisements
Track Severe Weather on mobile